createdAt,value
2018-07-26T00:00:49.965Z,23.73
2018-07-26T00:01:49.891Z,23.70
2018-07-26T00:02:49.814Z,23.72
2018-07-26T00:03:49.740Z,23.79
2018-07-26T00:04:49.665Z,23.70
2018-07-26T00:05:49.593Z,23.73
2018-07-26T00:06:49.515Z,23.75
2018-07-26T00:07:49.453Z,23.66
2018-07-26T00:08:49.367Z,23.57
2018-07-26T00:09:49.293Z,23.58
2018-07-26T00:10:49.206Z,23.66
2018-07-26T00:11:49.131Z,23.57
2018-07-26T00:12:49.053Z,23.51
2018-07-26T00:13:48.979Z,23.48
2018-07-26T00:14:48.907Z,23.43
2018-07-26T00:15:48.830Z,23.48
2018-07-26T00:16:48.756Z,23.42
2018-07-26T00:17:48.682Z,23.38
2018-07-26T00:18:48.607Z,23.35
2018-07-26T00:19:48.533Z,23.35
2018-07-26T00:20:48.460Z,23.31
2018-07-26T00:21:48.382Z,23.32
2018-07-26T00:22:48.307Z,23.27
2018-07-26T00:23:48.232Z,23.20
2018-07-26T00:24:48.156Z,23.15
2018-07-26T00:25:48.081Z,23.13
2018-07-26T00:26:48.006Z,23.09
2018-07-26T00:27:47.932Z,23.05
2018-07-26T00:28:47.857Z,23.02
2018-07-26T00:29:47.782Z,23.02
2018-07-26T00:30:47.707Z,23.00
2018-07-26T00:31:47.634Z,23.01
2018-07-26T00:32:47.557Z,22.92
2018-07-26T00:33:47.481Z,22.91
2018-07-26T00:34:47.405Z,22.92
2018-07-26T00:35:47.319Z,22.85
2018-07-26T00:36:47.245Z,22.85
2018-07-26T00:37:47.182Z,22.88
2018-07-26T00:38:47.095Z,22.79
2018-07-26T00:39:47.020Z,22.75
2018-07-26T00:40:46.946Z,22.72
2018-07-26T00:41:46.885Z,22.70
2018-07-26T00:42:46.796Z,22.73
2018-07-26T00:43:46.722Z,22.68
2018-07-26T00:44:46.648Z,22.75
2018-07-26T00:45:46.570Z,22.67
2018-07-26T00:46:46.495Z,22.64
2018-07-26T00:47:46.419Z,22.65
2018-07-26T00:48:46.400Z,22.70
2018-07-26T00:49:46.271Z,22.67
2018-07-26T00:50:46.197Z,22.72
2018-07-26T00:51:46.122Z,22.58
2018-07-26T00:52:46.047Z,22.61
2018-07-26T00:53:45.960Z,22.55
2018-07-26T00:54:45.886Z,22.54
2018-07-26T00:55:45.811Z,22.49
2018-07-26T00:56:45.735Z,22.49
2018-07-26T00:57:45.659Z,22.47
2018-07-26T00:58:45.584Z,22.39
2018-07-26T00:59:45.510Z,22.40
2018-07-26T01:00:45.437Z,22.42
2018-07-26T01:01:45.365Z,22.40
2018-07-26T01:02:45.287Z,22.39
2018-07-26T01:03:45.211Z,22.33
2018-07-26T01:04:45.123Z,22.33
2018-07-26T01:05:45.047Z,22.27
2018-07-26T01:06:44.971Z,22.31
2018-07-26T01:07:44.897Z,22.27
2018-07-26T01:08:44.821Z,22.20
2018-07-26T01:09:44.760Z,22.22
2018-07-26T01:10:44.672Z,22.24
2018-07-26T01:11:44.597Z,22.28
2018-07-26T01:12:44.524Z,22.10
2018-07-26T01:13:44.449Z,22.09
2018-07-26T01:14:44.376Z,22.12
2018-07-26T01:15:44.300Z,22.10
2018-07-26T01:16:44.210Z,22.17
2018-07-26T01:17:44.147Z,22.07
2018-07-26T01:18:44.061Z,22.09
2018-07-26T01:19:43.986Z,22.09
2018-07-26T01:20:43.913Z,22.03
2018-07-26T01:21:43.839Z,22.03
2018-07-26T01:22:43.763Z,21.99
2018-07-26T01:23:43.691Z,22.00
2018-07-26T01:24:43.613Z,21.92
2018-07-26T01:25:43.527Z,21.98
2018-07-26T01:26:43.451Z,21.98
2018-07-26T01:27:43.376Z,21.96
2018-07-26T01:28:43.298Z,21.91
2018-07-26T01:29:43.237Z,22.00
2018-07-26T01:30:43.148Z,21.84
2018-07-26T01:31:43.074Z,21.92
2018-07-26T01:32:43.001Z,21.79
2018-07-26T01:33:42.942Z,21.75
2018-07-26T01:34:42.839Z,21.82
2018-07-26T01:35:42.767Z,21.82
2018-07-26T01:36:42.689Z,21.75
2018-07-26T01:37:42.613Z,21.77
2018-07-26T01:38:42.544Z,21.72
2018-07-26T01:39:42.464Z,21.69
2018-07-26T01:40:42.390Z,21.72
2018-07-26T01:41:42.319Z,21.68
2018-07-26T01:42:42.228Z,21.68
2018-07-26T01:43:42.153Z,21.65
2018-07-26T01:44:42.076Z,21.61
2018-07-26T01:45:42.000Z,21.58
2018-07-26T01:46:41.925Z,21.62
2018-07-26T01:47:41.863Z,21.61
2018-07-26T01:48:41.778Z,21.53
2018-07-26T01:49:41.703Z,21.53
2018-07-26T01:50:41.634Z,21.56
2018-07-26T01:51:41.543Z,21.52
2018-07-26T01:52:41.466Z,21.54
2018-07-26T01:53:41.389Z,21.53
2018-07-26T01:54:41.314Z,21.52
2018-07-26T01:55:41.240Z,21.50
2018-07-26T01:56:41.165Z,21.54
2018-07-26T01:57:41.090Z,21.54
2018-07-26T01:58:41.017Z,21.54
2018-07-26T01:59:40.927Z,21.53
2018-07-26T02:00:40.854Z,21.50
2018-07-26T02:01:40.787Z,21.53
2018-07-26T02:02:40.705Z,21.49
2018-07-26T02:03:40.630Z,21.50
2018-07-26T02:04:40.553Z,21.47
2018-07-26T02:05:40.477Z,21.56
2018-07-26T02:06:40.392Z,21.49
2018-07-26T02:07:40.316Z,21.47
2018-07-26T02:08:40.244Z,21.50
2018-07-26T02:09:40.168Z,21.42
2018-07-26T02:10:40.123Z,21.40
2018-07-26T02:11:40.019Z,21.42
2018-07-26T02:12:39.933Z,21.47
2018-07-26T02:13:39.857Z,21.37
2018-07-26T02:14:39.781Z,21.46
2018-07-26T02:15:39.706Z,21.38
2018-07-26T02:16:39.629Z,21.35
2018-07-26T02:17:39.554Z,21.40
2018-07-26T02:18:39.479Z,21.31
2018-07-26T02:19:39.393Z,21.37
2018-07-26T02:20:39.320Z,21.27
2018-07-26T02:21:39.245Z,21.25
2018-07-26T02:22:39.170Z,21.29
2018-07-26T02:23:39.096Z,21.28
2018-07-26T02:24:39.020Z,21.25
2018-07-26T02:25:38.944Z,21.16
2018-07-26T02:26:38.855Z,21.14
2018-07-26T02:27:38.780Z,21.17
2018-07-26T02:28:38.707Z,21.16
2018-07-26T02:29:38.630Z,21.13
2018-07-26T02:30:38.556Z,21.09
2018-07-26T02:31:38.486Z,20.98
2018-07-26T02:32:38.408Z,20.99
2018-07-26T02:33:38.322Z,20.92
2018-07-26T02:34:38.246Z,20.94
2018-07-26T02:35:38.171Z,20.85
2018-07-26T02:36:38.101Z,20.87
2018-07-26T02:37:38.019Z,20.76
2018-07-26T02:38:37.932Z,20.82
2018-07-26T02:39:37.872Z,20.74
2018-07-26T02:40:37.784Z,20.70
2018-07-26T02:41:37.709Z,20.77
2018-07-26T02:42:37.633Z,20.70
2018-07-26T02:43:37.559Z,20.76
2018-07-26T02:44:37.484Z,20.64
2018-07-26T02:45:37.397Z,20.59
2018-07-26T02:46:37.323Z,20.66
2018-07-26T02:47:37.248Z,20.62
2018-07-26T02:48:41.222Z,20.61
2018-07-26T02:49:39.722Z,20.66
2018-07-26T02:50:37.021Z,20.61
2018-07-26T02:51:36.938Z,20.64
2018-07-26T02:52:36.860Z,20.59
2018-07-26T02:53:36.785Z,20.58
2018-07-26T02:54:36.713Z,20.54
2018-07-26T02:55:36.635Z,20.58
2018-07-26T02:56:36.547Z,20.54
2018-07-26T02:57:36.471Z,20.52
2018-07-26T02:58:36.399Z,20.42
2018-07-26T02:59:36.322Z,20.51
2018-07-26T03:00:36.247Z,20.38
2018-07-26T03:01:36.160Z,20.36
2018-07-26T03:02:36.084Z,20.38
2018-07-26T03:03:36.009Z,20.39
2018-07-26T03:04:35.936Z,20.33
2018-07-26T03:05:35.862Z,20.29
2018-07-26T03:06:35.780Z,20.23
2018-07-26T03:07:35.713Z,20.26
2018-07-26T03:08:35.625Z,20.32
2018-07-26T03:09:35.548Z,20.16
2018-07-26T03:10:35.473Z,20.24
2018-07-26T03:11:35.398Z,20.13
2018-07-26T03:12:35.313Z,20.08
2018-07-26T03:13:35.237Z,20.17
2018-07-26T03:14:35.163Z,20.06
2018-07-26T03:15:35.089Z,20.02
2018-07-26T03:16:35.012Z,20.06
2018-07-26T03:17:34.926Z,20.01
2018-07-26T03:18:34.851Z,20.03
2018-07-26T03:19:34.776Z,20.01
2018-07-26T03:20:34.906Z,19.96
2018-07-26T03:21:34.629Z,19.95
2018-07-26T03:22:34.537Z,19.92
2018-07-26T03:23:34.461Z,19.94
2018-07-26T03:24:34.391Z,19.95
2018-07-26T03:25:34.313Z,19.95
2018-07-26T03:26:34.231Z,19.94
2018-07-26T03:27:34.154Z,19.96
2018-07-26T03:28:34.075Z,19.91
2018-07-26T03:29:34.000Z,19.80
2018-07-26T03:30:33.925Z,19.80
2018-07-26T03:31:33.837Z,19.78
2018-07-26T03:32:33.761Z,19.73
2018-07-26T03:33:33.687Z,19.81
2018-07-26T03:34:33.612Z,19.74
2018-07-26T03:35:33.537Z,19.74
2018-07-26T03:36:33.453Z,19.69
2018-07-26T03:37:33.379Z,19.74
2018-07-26T03:38:33.303Z,19.74
2018-07-26T03:39:33.227Z,19.69
2018-07-26T03:40:33.138Z,19.61
2018-07-26T03:41:33.063Z,19.59
2018-07-26T03:42:32.987Z,19.50
2018-07-26T03:43:32.947Z,19.55
2018-07-26T03:44:32.840Z,19.54
2018-07-26T03:45:32.754Z,19.55
2018-07-26T03:46:32.679Z,19.55
2018-07-26T03:47:32.604Z,19.58
2018-07-26T03:48:32.530Z,19.58
2018-07-26T03:49:32.440Z,19.58
2018-07-26T03:50:32.364Z,19.51
2018-07-26T03:51:32.291Z,19.54
2018-07-26T03:52:32.216Z,19.61
2018-07-26T03:53:32.142Z,19.63
2018-07-26T03:54:32.055Z,19.63
2018-07-26T03:55:31.979Z,19.54
2018-07-26T03:56:31.903Z,19.62
2018-07-26T03:57:31.830Z,19.63
2018-07-26T03:58:31.752Z,19.55
2018-07-26T03:59:31.667Z,19.59
2018-07-26T04:00:31.592Z,19.74
2018-07-26T04:01:31.517Z,19.73
2018-07-26T04:02:31.430Z,19.66
2018-07-26T04:03:31.356Z,19.76
2018-07-26T04:04:31.280Z,19.77
2018-07-26T04:05:31.232Z,19.87
2018-07-26T04:06:31.130Z,19.87
2018-07-26T04:07:31.042Z,19.95
2018-07-26T04:08:30.965Z,19.98
2018-07-26T04:09:30.890Z,20.05
2018-07-26T04:10:30.828Z,19.96
2018-07-26T04:11:30.729Z,19.98
2018-07-26T04:12:30.659Z,20.01
2018-07-26T04:13:30.581Z,20.05
2018-07-26T04:14:30.506Z,20.05
2018-07-26T04:15:30.420Z,20.08
2018-07-26T04:16:30.342Z,20.05
2018-07-26T04:17:30.267Z,20.16
2018-07-26T04:18:30.192Z,20.17
2018-07-26T04:19:30.117Z,20.28
2018-07-26T04:20:30.032Z,20.26
2018-07-26T04:21:29.956Z,20.32
2018-07-26T04:22:29.880Z,20.29
2018-07-26T04:23:29.810Z,20.41
2018-07-26T04:24:29.732Z,20.51
2018-07-26T04:25:29.645Z,20.48
2018-07-26T04:26:29.570Z,20.52
2018-07-26T04:27:29.498Z,20.50
2018-07-26T04:28:29.418Z,20.57
2018-07-26T04:29:29.332Z,20.62
2018-07-26T04:30:29.257Z,20.69
2018-07-26T04:31:29.182Z,20.72
2018-07-26T04:32:29.113Z,20.84
2018-07-26T04:33:29.035Z,20.84
2018-07-26T04:34:28.947Z,20.95
2018-07-26T04:35:28.874Z,20.97
2018-07-26T04:36:28.810Z,20.97
2018-07-26T04:37:28.721Z,21.14
2018-07-26T04:38:28.651Z,21.24
2018-07-26T04:39:28.560Z,21.50
2018-07-26T04:40:28.482Z,21.80
2018-07-26T04:41:28.408Z,21.98
2018-07-26T04:42:28.333Z,22.06
2018-07-26T04:43:28.259Z,22.18
2018-07-26T04:44:28.187Z,22.35
2018-07-26T04:45:28.098Z,22.67
2018-07-26T04:46:28.022Z,22.90
2018-07-26T04:47:27.947Z,23.28
2018-07-26T04:48:27.871Z,23.38
2018-07-26T04:49:27.797Z,23.57
2018-07-26T04:50:27.720Z,23.61
2018-07-26T04:51:27.633Z,23.69
2018-07-26T04:52:27.570Z,23.83
2018-07-26T04:53:27.487Z,23.87
2018-07-26T04:54:27.440Z,24.06
2018-07-26T04:55:27.334Z,24.18
2018-07-26T04:56:27.263Z,24.34
2018-07-26T04:57:27.187Z,24.45
2018-07-26T04:58:27.112Z,24.35
2018-07-26T04:59:27.025Z,24.31
2018-07-26T05:00:26.948Z,24.37
2018-07-26T05:01:26.874Z,24.25
2018-07-26T05:02:26.797Z,24.10
2018-07-26T05:03:26.722Z,23.98
2018-07-26T05:04:26.649Z,23.80
2018-07-26T05:05:26.574Z,23.69
2018-07-26T05:06:26.499Z,23.60
2018-07-26T05:07:26.425Z,23.47
2018-07-26T05:08:26.364Z,23.40
2018-07-26T05:09:26.275Z,23.42
2018-07-26T05:10:26.201Z,23.31
2018-07-26T05:11:26.125Z,23.28
2018-07-26T05:12:26.061Z,23.35
2018-07-26T05:13:25.973Z,23.35
2018-07-26T05:14:25.898Z,23.33
2018-07-26T05:15:25.823Z,23.22
2018-07-26T05:16:25.739Z,23.31
2018-07-26T05:17:25.668Z,23.32
2018-07-26T05:18:25.622Z,23.36
2018-07-26T05:19:25.515Z,23.36
2018-07-26T05:20:25.437Z,23.38
2018-07-26T05:21:25.362Z,23.32
2018-07-26T05:22:25.287Z,23.28
2018-07-26T05:23:25.213Z,23.32
2018-07-26T05:24:25.166Z,23.20
2018-07-26T05:25:25.063Z,23.22
2018-07-26T05:26:24.988Z,23.32
2018-07-26T05:27:24.913Z,23.36
2018-07-26T05:28:24.840Z,23.36
2018-07-26T05:29:24.765Z,23.39
2018-07-26T05:30:24.690Z,23.36
2018-07-26T05:31:24.615Z,23.39
2018-07-26T05:32:24.527Z,23.46
2018-07-26T05:33:24.451Z,23.48
2018-07-26T05:34:24.375Z,23.39
2018-07-26T05:35:24.301Z,23.42
2018-07-26T05:36:24.229Z,23.43
2018-07-26T05:37:24.172Z,23.50
2018-07-26T05:38:24.090Z,23.43
2018-07-26T05:39:24.003Z,23.43
2018-07-26T05:40:23.928Z,23.54
2018-07-26T05:41:23.853Z,23.54
2018-07-26T05:42:23.779Z,23.54
2018-07-26T05:43:23.705Z,23.55
2018-07-26T05:44:23.626Z,23.65
2018-07-26T05:45:23.551Z,23.61
2018-07-26T05:46:23.477Z,23.73
2018-07-26T05:47:23.402Z,23.75
2018-07-26T05:48:23.333Z,23.69
2018-07-26T05:49:23.254Z,23.68
2018-07-26T05:50:23.173Z,23.69
2018-07-26T05:51:23.093Z,23.78
2018-07-26T05:52:23.018Z,23.75
2018-07-26T05:53:23.006Z,23.76
2018-07-26T05:54:22.891Z,23.79
2018-07-26T05:55:22.790Z,23.83
2018-07-26T05:56:22.719Z,23.90
2018-07-26T05:57:22.643Z,23.94
2018-07-26T05:58:22.568Z,23.94
2018-07-26T05:59:22.492Z,24.05
2018-07-26T06:00:22.417Z,23.95
2018-07-26T06:01:22.342Z,24.09
2018-07-26T06:02:22.266Z,24.03
2018-07-26T06:03:22.194Z,24.09
2018-07-26T06:04:22.119Z,24.15
2018-07-26T06:05:22.044Z,24.06
2018-07-26T06:06:21.972Z,24.10
2018-07-26T06:07:21.894Z,24.09
2018-07-26T06:08:21.818Z,24.18
2018-07-26T06:09:21.742Z,24.24
2018-07-26T06:10:21.672Z,24.24
2018-07-26T06:11:21.592Z,24.22
2018-07-26T06:12:21.517Z,24.25
2018-07-26T06:13:21.442Z,24.30
2018-07-26T06:14:21.356Z,24.25
2018-07-26T06:15:21.281Z,24.24
2018-07-26T06:16:21.208Z,24.35
2018-07-26T06:17:21.134Z,24.39
2018-07-26T06:18:21.057Z,24.42
2018-07-26T06:19:20.982Z,24.46
2018-07-26T06:20:20.906Z,24.43
2018-07-26T06:21:20.830Z,24.47
2018-07-26T06:22:20.755Z,24.43
2018-07-26T06:23:20.681Z,24.52
2018-07-26T06:24:20.608Z,24.57
2018-07-26T06:25:20.533Z,24.55
2018-07-26T06:26:20.472Z,24.64
2018-07-26T06:27:20.383Z,24.67
2018-07-26T06:28:20.350Z,24.64
2018-07-26T06:29:20.233Z,24.80
2018-07-26T06:30:20.158Z,24.80
2018-07-26T06:31:20.084Z,24.85
2018-07-26T06:32:20.008Z,24.83
2018-07-26T06:33:19.999Z,24.84
2018-07-26T06:34:19.857Z,24.95
2018-07-26T06:35:19.782Z,24.98
2018-07-26T06:36:19.722Z,24.93
2018-07-26T06:37:19.634Z,24.91
2018-07-26T06:38:19.559Z,24.99
2018-07-26T06:39:19.485Z,25.03
2018-07-26T06:40:19.421Z,25.10
2018-07-26T06:41:19.333Z,25.15
2018-07-26T06:42:19.257Z,25.21
2018-07-26T06:43:19.183Z,25.21
2018-07-26T06:44:19.109Z,25.21
2018-07-26T06:45:19.038Z,25.28
2018-07-26T06:46:18.958Z,25.33
2018-07-26T06:47:18.885Z,25.33
2018-07-26T06:48:18.811Z,25.35
2018-07-26T06:49:18.738Z,25.45
2018-07-26T06:50:18.662Z,25.50
2018-07-26T06:51:18.598Z,25.54
2018-07-26T06:52:18.509Z,25.60
2018-07-26T06:53:18.449Z,25.70
2018-07-26T06:54:18.359Z,25.64
2018-07-26T06:55:18.285Z,25.64
2018-07-26T06:56:18.214Z,25.69
2018-07-26T06:57:18.149Z,25.77
2018-07-26T06:58:18.077Z,25.75
2018-07-26T06:59:17.999Z,25.90
2018-07-26T07:00:17.925Z,25.92
2018-07-26T07:01:17.850Z,26.02
2018-07-26T07:02:17.775Z,25.97
2018-07-26T07:03:17.701Z,26.13
2018-07-26T07:04:17.624Z,26.07
2018-07-26T07:05:17.549Z,26.07
2018-07-26T07:06:17.473Z,26.20
2018-07-26T07:07:17.399Z,26.25
2018-07-26T07:08:17.327Z,26.21
2018-07-26T07:09:17.250Z,26.23
2018-07-26T07:10:17.176Z,26.39
2018-07-26T07:11:17.113Z,26.40
2018-07-26T07:12:17.048Z,26.48
2018-07-26T07:13:16.961Z,26.51
2018-07-26T07:14:16.887Z,26.62
2018-07-26T07:15:16.812Z,26.66
2018-07-26T07:16:16.737Z,26.75
2018-07-26T07:17:16.662Z,26.76
2018-07-26T07:18:16.590Z,26.85
2018-07-26T07:19:16.511Z,27.00
2018-07-26T07:20:16.440Z,26.97
2018-07-26T07:21:16.366Z,27.07
2018-07-26T07:22:16.302Z,27.18
2018-07-26T07:23:16.229Z,27.27
2018-07-26T07:24:16.150Z,27.27
2018-07-26T07:25:16.084Z,27.28
2018-07-26T07:26:16.001Z,27.36
2018-07-26T07:27:15.926Z,27.25
2018-07-26T07:28:15.853Z,27.44
2018-07-26T07:29:15.790Z,27.60
2018-07-26T07:30:15.717Z,27.69
2018-07-26T07:31:15.640Z,27.79
2018-07-26T07:32:15.565Z,27.85
2018-07-26T07:33:15.500Z,28.02
2018-07-26T07:34:15.415Z,28.41
2018-07-26T07:35:15.355Z,28.83
2018-07-26T07:36:15.277Z,29.23
2018-07-26T07:37:15.202Z,29.39
2018-07-26T07:38:15.139Z,29.42
2018-07-26T07:39:15.079Z,30.07
2018-07-26T07:40:14.993Z,30.58
2018-07-26T07:41:14.916Z,30.94
2018-07-26T07:42:14.854Z,30.79
2018-07-26T07:43:14.780Z,31.14
2018-07-26T07:44:14.704Z,31.48
2018-07-26T07:45:14.639Z,31.43
2018-07-26T07:46:14.564Z,31.76
2018-07-26T07:47:14.536Z,32.26
2018-07-26T07:48:14.428Z,32.45
2018-07-26T07:49:14.365Z,32.89
2018-07-26T07:50:14.293Z,32.11
2018-07-26T07:51:14.229Z,32.23
2018-07-26T07:52:14.161Z,32.11
2018-07-26T07:53:14.096Z,32.15
2018-07-26T07:54:14.031Z,32.07
2018-07-26T07:55:13.961Z,32.01
2018-07-26T07:56:13.879Z,31.62
2018-07-26T07:57:13.816Z,32.03
2018-07-26T07:58:13.754Z,32.08
2018-07-26T07:59:13.679Z,31.81
2018-07-26T08:00:13.619Z,31.89
2018-07-26T08:01:13.558Z,32.13
2018-07-26T08:02:13.484Z,32.15
2018-07-26T08:03:13.419Z,32.41
2018-07-26T08:04:13.356Z,32.70
2018-07-26T08:05:13.324Z,32.63
2018-07-26T08:06:13.217Z,32.88
2018-07-26T08:07:13.155Z,33.18
2018-07-26T08:08:13.082Z,33.69
2018-07-26T08:09:13.020Z,34.09
2018-07-26T08:10:12.958Z,33.29
2018-07-26T08:11:12.922Z,33.37
2018-07-26T08:12:12.821Z,32.82
2018-07-26T08:13:12.758Z,32.69
2018-07-26T08:14:12.681Z,32.93
2018-07-26T08:15:12.617Z,32.93
2018-07-26T08:16:12.557Z,32.94
2018-07-26T08:17:12.495Z,32.63
2018-07-26T08:18:12.420Z,32.94
2018-07-26T08:19:12.358Z,32.70
2018-07-26T08:20:12.295Z,33.19
2018-07-26T08:21:12.235Z,32.79
2018-07-26T08:22:12.159Z,32.70
2018-07-26T08:23:12.095Z,32.89
2018-07-26T08:24:12.037Z,32.89
2018-07-26T08:25:11.970Z,32.30
2018-07-26T08:26:11.907Z,32.92
2018-07-26T08:27:11.838Z,33.59
2018-07-26T08:28:11.770Z,33.61
2018-07-26T08:29:11.711Z,32.77
2018-07-26T08:30:11.652Z,33.39
2018-07-26T08:31:11.572Z,33.21
2018-07-26T08:32:11.508Z,33.19
2018-07-26T08:33:11.444Z,33.71
2018-07-26T08:34:11.383Z,34.19
2018-07-26T08:35:11.324Z,34.17
2018-07-26T08:36:11.244Z,34.09
2018-07-26T08:37:11.182Z,34.37
2018-07-26T08:38:11.119Z,34.05
2018-07-26T08:39:11.058Z,34.21
2018-07-26T08:40:10.998Z,34.02
2018-07-26T08:41:10.949Z,33.69
2018-07-26T08:42:10.860Z,33.95
2018-07-26T08:43:10.797Z,33.39
2018-07-26T08:44:10.733Z,33.98
2018-07-26T08:45:10.672Z,33.87
2018-07-26T08:46:10.599Z,33.73
2018-07-26T08:47:10.534Z,33.38
2018-07-26T08:48:10.529Z,33.71
2018-07-26T08:49:10.411Z,33.60
2018-07-26T08:50:10.348Z,33.91
2018-07-26T08:51:10.287Z,34.46
2018-07-26T08:52:10.263Z,34.89
2018-07-26T08:53:10.162Z,34.54
2018-07-26T08:54:10.122Z,33.84
2018-07-26T08:55:10.028Z,34.50
2018-07-26T08:56:09.961Z,34.88
2018-07-26T08:57:09.896Z,34.59
2018-07-26T08:58:09.840Z,34.25
2018-07-26T08:59:09.788Z,34.69
2018-07-26T09:00:09.712Z,34.91
2018-07-26T09:01:09.660Z,35.22
2018-07-26T09:02:09.575Z,34.99
2018-07-26T09:03:09.513Z,33.84
2018-07-26T09:04:09.447Z,33.97
2018-07-26T09:05:09.433Z,34.64
2018-07-26T09:06:09.324Z,34.59
2018-07-26T09:07:09.261Z,34.80
2018-07-26T09:08:09.200Z,34.75
2018-07-26T09:09:09.140Z,34.89
2018-07-26T09:10:09.089Z,34.47
2018-07-26T09:11:09.005Z,33.91
2018-07-26T09:12:08.936Z,34.03
2018-07-26T09:13:08.873Z,34.02
2018-07-26T09:14:08.812Z,34.15
2018-07-26T09:15:08.752Z,33.81
2018-07-26T09:16:08.689Z,34.09
2018-07-26T09:17:08.671Z,34.47
2018-07-26T09:18:08.565Z,35.00
2018-07-26T09:19:08.514Z,35.28
2018-07-26T09:20:08.440Z,35.22
2018-07-26T09:21:08.374Z,35.93
2018-07-26T09:22:08.315Z,35.74
2018-07-26T09:23:08.238Z,36.09
2018-07-26T09:24:08.174Z,36.66
2018-07-26T09:25:08.113Z,35.56
2018-07-26T09:26:08.053Z,34.40
2018-07-26T09:27:07.988Z,34.52
2018-07-26T09:28:07.927Z,34.94
2018-07-26T09:29:07.866Z,35.47
2018-07-26T09:30:07.802Z,35.96
2018-07-26T09:31:07.742Z,35.85
2018-07-26T09:32:07.675Z,35.59
2018-07-26T09:33:07.666Z,34.22
2018-07-26T09:34:07.564Z,34.84
2018-07-26T09:35:07.491Z,34.87
2018-07-26T09:36:07.431Z,35.44
2018-07-26T09:37:07.366Z,35.43
2018-07-26T09:38:07.303Z,35.55
2018-07-26T09:39:07.242Z,35.72
2018-07-26T09:40:07.178Z,35.26
2018-07-26T09:41:07.134Z,34.81
2018-07-26T09:42:07.053Z,34.42
2018-07-26T09:43:06.991Z,34.62
2018-07-26T09:44:06.940Z,34.72
2018-07-26T09:45:06.865Z,35.11
2018-07-26T09:46:06.802Z,35.37
2018-07-26T09:47:06.743Z,34.06
2018-07-26T09:48:06.669Z,33.87
2018-07-26T09:49:06.605Z,33.50
2018-07-26T09:50:06.542Z,33.26
2018-07-26T09:51:06.479Z,32.79
2018-07-26T09:52:06.415Z,32.45
2018-07-26T09:53:06.358Z,32.32
2018-07-26T09:54:06.293Z,32.43
2018-07-26T09:55:06.241Z,32.69
2018-07-26T09:56:06.155Z,32.44
2018-07-26T09:57:06.103Z,32.69
2018-07-26T09:58:06.042Z,32.75
2018-07-26T09:59:05.967Z,32.41
2018-07-26T10:00:05.906Z,32.44
2018-07-26T10:01:05.844Z,32.75
2018-07-26T10:02:05.770Z,32.38
2018-07-26T10:03:05.708Z,32.63
2018-07-26T10:04:05.642Z,32.30
2018-07-26T10:05:05.567Z,32.04
2018-07-26T10:06:05.504Z,32.15
2018-07-26T10:07:05.442Z,32.21
2018-07-26T10:08:05.395Z,32.18
2018-07-26T10:09:05.308Z,31.76
2018-07-26T10:10:05.246Z,32.10
2018-07-26T10:11:05.187Z,32.29
2018-07-26T10:12:05.106Z,32.62
2018-07-26T10:13:05.044Z,33.04
2018-07-26T10:14:05.051Z,33.38
2018-07-26T10:15:04.942Z,33.18
2018-07-26T10:16:04.847Z,33.21
2018-07-26T10:17:04.782Z,32.99
2018-07-26T10:18:04.708Z,33.03
2018-07-26T10:19:04.647Z,33.18
2018-07-26T10:20:04.637Z,33.19
2018-07-26T10:21:04.506Z,33.38
2018-07-26T10:22:04.445Z,33.06
2018-07-26T10:23:04.370Z,33.00
2018-07-26T10:24:04.309Z,32.81
2018-07-26T10:25:04.247Z,32.78
2018-07-26T10:26:04.172Z,32.63
2018-07-26T10:27:04.111Z,32.72
2018-07-26T10:28:04.047Z,32.87
2018-07-26T10:29:03.977Z,32.96
2018-07-26T10:30:03.923Z,33.11
2018-07-26T10:31:03.847Z,32.81
2018-07-26T10:32:03.774Z,33.04
2018-07-26T10:33:03.720Z,33.21
2018-07-26T10:34:03.633Z,33.06
2018-07-26T10:35:03.572Z,32.89
2018-07-26T10:36:03.498Z,32.88
2018-07-26T10:37:03.435Z,32.59
2018-07-26T10:38:03.373Z,32.63
2018-07-26T10:39:03.298Z,32.74
2018-07-26T10:40:03.233Z,32.74
2018-07-26T10:41:03.172Z,32.77
2018-07-26T10:42:03.097Z,32.63
2018-07-26T10:43:03.033Z,32.43
2018-07-26T10:44:02.958Z,32.41
2018-07-26T10:45:02.897Z,32.57
2018-07-26T10:46:02.833Z,32.48
2018-07-26T10:47:02.772Z,32.62
2018-07-26T10:48:02.708Z,32.52
2018-07-26T10:49:02.628Z,32.45
2018-07-26T10:50:02.624Z,32.52
2018-07-26T10:51:02.500Z,32.77
2018-07-26T10:52:02.423Z,33.37
2018-07-26T10:53:02.375Z,33.84
2018-07-26T10:54:02.285Z,34.69
2018-07-26T10:55:02.223Z,34.94
2018-07-26T10:56:02.179Z,35.15
2018-07-26T10:57:02.088Z,35.06
2018-07-26T10:58:02.025Z,34.43
2018-07-26T10:59:01.963Z,34.37
2018-07-26T11:00:01.909Z,34.82
2018-07-26T11:01:01.827Z,34.97
2018-07-26T11:02:01.775Z,34.82
2018-07-26T11:03:01.706Z,34.92
2018-07-26T11:04:01.625Z,35.02
2018-07-26T11:05:01.575Z,34.91
2018-07-26T11:06:01.500Z,35.07
2018-07-26T11:07:01.436Z,35.90
2018-07-26T11:08:01.379Z,36.49
2018-07-26T11:09:01.301Z,36.93
2018-07-26T11:10:01.239Z,37.40
2018-07-26T11:11:01.176Z,36.93
2018-07-26T11:12:01.112Z,36.37
2018-07-26T11:13:01.051Z,36.22
2018-07-26T11:14:00.987Z,35.74
2018-07-26T11:15:00.964Z,35.99
2018-07-26T11:16:00.854Z,35.97
2018-07-26T11:17:00.790Z,35.71
2018-07-26T11:18:00.730Z,35.38
2018-07-26T11:19:00.670Z,35.82
2018-07-26T11:20:00.603Z,36.69
2018-07-26T11:21:00.540Z,36.91
2018-07-26T11:22:00.478Z,37.34
2018-07-26T11:23:00.414Z,37.56
2018-07-26T11:24:00.351Z,37.85
2018-07-26T11:25:00.288Z,37.02
2018-07-26T11:26:00.226Z,37.51
2018-07-26T11:27:00.164Z,38.19
2018-07-26T11:28:00.108Z,38.65
2018-07-26T11:29:00.054Z,37.97
2018-07-26T11:30:00.004Z,37.39
2018-07-26T11:30:59.917Z,37.39
2018-07-26T11:31:59.854Z,37.76
2018-07-26T11:32:59.794Z,37.31
2018-07-26T11:33:59.729Z,37.03
2018-07-26T11:34:59.666Z,36.85
2018-07-26T11:35:59.631Z,37.24
2018-07-26T11:36:59.555Z,37.36
2018-07-26T11:37:59.499Z,37.74
2018-07-26T11:38:59.427Z,37.82
2018-07-26T11:39:59.370Z,38.01
2018-07-26T11:40:59.310Z,37.85
2018-07-26T11:41:59.242Z,36.99
2018-07-26T11:42:59.180Z,36.85
2018-07-26T11:43:59.116Z,36.12
2018-07-26T11:44:59.053Z,36.09
2018-07-26T11:45:58.989Z,36.93
2018-07-26T11:46:58.929Z,37.56
2018-07-26T11:47:58.878Z,37.69
2018-07-26T11:48:58.804Z,37.40
2018-07-26T11:49:58.783Z,37.44
2018-07-26T11:50:58.690Z,36.66
2018-07-26T11:51:58.631Z,36.75
2018-07-26T11:52:58.568Z,37.05
2018-07-26T11:53:58.510Z,36.62
2018-07-26T11:54:58.443Z,37.36
2018-07-26T11:55:58.380Z,38.15
2018-07-26T11:56:58.357Z,38.07
2018-07-26T11:57:58.255Z,37.67
2018-07-26T11:58:58.205Z,38.03
2018-07-26T11:59:58.134Z,37.47
2018-07-26T12:00:58.068Z,36.69
2018-07-26T12:01:58.008Z,37.18
2018-07-26T12:02:57.944Z,37.55
2018-07-26T12:03:57.907Z,38.03
2018-07-26T12:04:57.832Z,38.31
2018-07-26T12:05:57.769Z,38.60
2018-07-26T12:06:57.707Z,38.07
2018-07-26T12:07:57.644Z,38.25
2018-07-26T12:08:57.582Z,37.97
2018-07-26T12:09:57.517Z,38.28
2018-07-26T12:10:57.456Z,38.65
2018-07-26T12:11:57.395Z,38.72
2018-07-26T12:12:57.333Z,39.22
2018-07-26T12:13:57.269Z,39.41
2018-07-26T12:14:57.207Z,39.26
2018-07-26T12:15:57.156Z,38.60
2018-07-26T12:16:57.092Z,38.20
2018-07-26T12:17:57.031Z,38.60
2018-07-26T12:18:56.968Z,39.06
2018-07-26T12:19:56.908Z,39.10
2018-07-26T12:20:56.845Z,39.43
2018-07-26T12:21:56.787Z,38.40
2018-07-26T12:22:56.721Z,38.40
2018-07-26T12:23:56.657Z,38.13
2018-07-26T12:24:56.593Z,37.47
2018-07-26T12:25:56.532Z,37.60
2018-07-26T12:26:56.583Z,37.57
2018-07-26T12:27:56.422Z,37.12
2018-07-26T12:28:56.361Z,37.24
2018-07-26T12:29:56.296Z,37.47
2018-07-26T12:30:56.237Z,37.24
2018-07-26T12:31:56.169Z,37.59
2018-07-26T12:32:56.108Z,38.00
2018-07-26T12:33:56.044Z,38.18
2018-07-26T12:34:55.982Z,38.42
2018-07-26T12:35:55.926Z,38.30
2018-07-26T12:36:55.858Z,37.62
2018-07-26T12:37:55.797Z,37.36
2018-07-26T12:38:55.744Z,36.93
2018-07-26T12:39:55.686Z,36.39
2018-07-26T12:40:55.622Z,37.18
2018-07-26T12:41:55.560Z,38.01
2018-07-26T12:42:55.498Z,38.18
2018-07-26T12:43:55.433Z,37.85
2018-07-26T12:44:55.372Z,38.41
2018-07-26T12:45:55.309Z,38.50
2018-07-26T12:46:55.245Z,38.91
2018-07-26T12:47:55.245Z,39.26
2018-07-26T12:48:55.136Z,38.83
2018-07-26T12:49:55.066Z,38.50
2018-07-26T12:50:55.013Z,38.11
2018-07-26T12:51:54.948Z,37.46